Bozeman, MT

7:42 AM MDT on April 25, 2015 (GMT -0600)
Middle Creek Parklands | | Change Station
CLOSE
Current Station
Personal Weather Station
Location: Bozeman, MT
Elevation: 4728 ft
Nearby Weather Stations

Elev 4728 ft 45.68 °N, 111.16 °W | Updated 2 minutes ago

Snow
Snow
32.4 °F
Feels Like 32 °F
N
0.0
Wind Variable Wind from WSW
Gusts 0.0 mph

Today
High -- | Low -- °F
--% Chance of Precip.
Yesterday
High -- | Low -- °F
Precip. -- in
6:22 AM 8:24 PM
Waxing Crescent, 46% visible
Pressure 29.81 in
Visibility 10.0 miles
Clouds Few 400 ft
Scattered Clouds 2100 ft
Overcast 3200 ft
Windchill 32 °F
Dew Point 29 °F
Humidity 86%
Rainfall 0.09 in
Snow Depth Not available.
UV 0 out of 12
Pollen 7.80 out of 12
Air Quality Not available.
Flu Activity Local Activity
SPECI KBZN 251338Z 26006KT 10SM FEW004 SCT021 OVC032 02/01 A2981 RMK AO2 SNE22 P0000 T00170006

More Conditions Fewer Conditions

Pressure 29.81 in
Visibility 10.0 miles
Clouds Few 400 ft
Scattered Clouds 2100 ft
Overcast 3200 ft
Windchill 32 °F
Dew Point 29 °F
Humidity 86%
Rainfall 0.09 in
Snow Depth Not available.
UV 0 out of 12
Pollen 7.80 out of 12
Air Quality Not available.
Flu Activity Local Activity
SPECI KBZN 251338Z 26006KT 10SM FEW004 SCT021 OVC032 02/01 A2981 RMK AO2 SNE22 P0000 T00170006

More Conditions Fewer Conditions

10-Day Weather Forecast

Almanac

Astronomy

Apr. 25, 2015 Rise Set
Actual Time
Civil Twilight
Nautical Twilight
Astronomical Twilight
Moon
Length of Visible Light
Length of Day
Tomorrow will be .
, % of the Moon is Illuminated

Today's Extremes

State Highs State Lows

Community

WunderPhotos

Upload Photos

1,816,675 photos uploaded!

WunderBlogs® & News

Nearby

Air Quality

  Air Quality AQ Index Pollutant
Not available.

Snow Depth

Station Depth Elevation

Earthquake Activity

City Distance Mag. Time & Date
Minimum magnitude displayed is 2.5.

Coastal Water Temperatures

Place Temperature

Stations

Nearby Weather Stations

Station Location Temp. Windchill Dew Point Humidity Wind Precip. Elev Updated Type